sensor_id;sensor_type;location;lat;lon;timestamp;P1;durP1;ratioP1;P2;durP2;ratioP2
24567;SDS011;12731;52.182;8.716;2024-02-23T00:02:25;8.13;;;1.00;;
24567;SDS011;12731;52.182;8.716;2024-02-23T00:04:51;5.45;;;1.17;;
24567;SDS011;12731;52.182;8.716;2024-02-23T00:07:20;1.65;;;0.73;;
24567;SDS011;12731;52.182;8.716;2024-02-23T00:09:46;4.82;;;0.90;;
24567;SDS011;12731;52.182;8.716;2024-02-23T00:12:13;2.75;;;0.90;;
24567;SDS011;12731;52.182;8.716;2024-02-23T00:14:40;5.78;;;1.15;;
24567;SDS011;12731;52.182;8.716;2024-02-23T00:17:06;3.88;;;1.08;;
24567;SDS011;12731;52.182;8.716;2024-02-23T00:19:33;3.10;;;0.88;;
24567;SDS011;12731;52.182;8.716;2024-02-23T00:21:59;3.90;;;0.68;;
24567;SDS011;12731;52.182;8.716;2024-02-23T00:24:26;2.08;;;0.60;;
24567;SDS011;12731;52.182;8.716;2024-02-23T00:26:52;3.00;;;0.85;;
24567;SDS011;12731;52.182;8.716;2024-02-23T00:29:19;1.92;;;0.73;;
24567;SDS011;12731;52.182;8.716;2024-02-23T00:31:45;1.08;;;0.50;;
24567;SDS011;12731;52.182;8.716;2024-02-23T00:34:12;6.22;;;1.10;;
24567;SDS011;12731;52.182;8.716;2024-02-23T00:36:40;2.08;;;1.02;;
24567;SDS011;12731;52.182;8.716;2024-02-23T00:39:07;2.80;;;1.20;;
24567;SDS011;12731;52.182;8.716;2024-02-23T00:41:34;3.13;;;0.68;;
24567;SDS011;12731;52.182;8.716;2024-02-23T00:44:01;0.68;;;0.50;;
24567;SDS011;12731;52.182;8.716;2024-02-23T00:46:28;0.50;;;0.50;;
24567;SDS011;12731;52.182;8.716;2024-02-23T00:48:54;1.95;;;0.80;;
24567;SDS011;12731;52.182;8.716;2024-02-23T00:51:21;0.80;;;0.32;;
24567;SDS011;12731;52.182;8.716;2024-02-23T00:53:47;1.55;;;0.73;;
24567;SDS011;12731;52.182;8.716;2024-02-23T00:56:14;0.65;;;0.30;;
24567;SDS011;12731;52.182;8.716;2024-02-23T00:58:40;0.52;;;0.40;;
24567;SDS011;12731;52.182;8.716;2024-02-23T01:01:07;0.20;;;0.20;;
24567;SDS011;12731;52.182;8.716;2024-02-23T01:03:34;0.20;;;0.20;;
24567;SDS011;12731;52.182;8.716;2024-02-23T01:06:00;0.52;;;0.15;;
24567;SDS011;12731;52.182;8.716;2024-02-23T01:08:27;0.22;;;0.22;;
24567;SDS011;12731;52.182;8.716;2024-02-23T01:10:53;1.55;;;0.30;;
24567;SDS011;12731;52.182;8.716;2024-02-23T01:13:20;0.65;;;0.30;;
24567;SDS011;12731;52.182;8.716;2024-02-23T01:15:46;0.30;;;0.30;;
24567;SDS011;12731;52.182;8.716;2024-02-23T01:18:13;0.30;;;0.30;;
24567;SDS011;12731;52.182;8.716;2024-02-23T01:20:40;0.47;;;0.35;;
24567;SDS011;12731;52.182;8.716;2024-02-23T01:23:06;0.52;;;0.20;;
24567;SDS011;12731;52.182;8.716;2024-02-23T01:25:34;0.52;;;0.50;;
24567;SDS011;12731;52.182;8.716;2024-02-23T01:28:01;0.40;;;0.40;;
24567;SDS011;12731;52.182;8.716;2024-02-23T01:30:27;0.25;;;0.25;;
24567;SDS011;12731;52.182;8.716;2024-02-23T01:32:54;0.60;;;0.25;;
24567;SDS011;12731;52.182;8.716;2024-02-23T01:35:20;0.30;;;0.30;;
24567;SDS011;12731;52.182;8.716;2024-02-23T01:37:47;0.43;;;0.30;;
24567;SDS011;12731;52.182;8.716;2024-02-23T01:40:13;0.20;;;0.20;;
24567;SDS011;12731;52.182;8.716;2024-02-23T01:42:40;0.43;;;0.40;;
24567;SDS011;12731;52.182;8.716;2024-02-23T01:45:06;0.90;;;0.73;;
24567;SDS011;12731;52.182;8.716;2024-02-23T01:47:33;0.57;;;0.50;;
24567;SDS011;12731;52.182;8.716;2024-02-23T01:50:00;0.50;;;0.40;;
24567;SDS011;12731;52.182;8.716;2024-02-23T01:52:27;0.43;;;0.40;;
24567;SDS011;12731;52.182;8.716;2024-02-23T01:54:53;0.50;;;0.50;;
24567;SDS011;12731;52.182;8.716;2024-02-23T01:57:20;0.38;;;0.38;;
24567;SDS011;12731;52.182;8.716;2024-02-23T02:00:07;0.50;;;0.50;;
24567;SDS011;12731;52.182;8.716;2024-02-23T02:02:35;0.68;;;0.40;;
24567;SDS011;12731;52.182;8.716;2024-02-23T02:05:02;2.05;;;0.60;;
24567;SDS011;12731;52.182;8.716;2024-02-23T02:07:29;0.70;;;0.70;;
24567;SDS011;12731;52.182;8.716;2024-02-23T02:09:56;1.92;;;0.70;;
24567;SDS011;12731;52.182;8.716;2024-02-23T02:12:28;1.00;;;0.60;;
24567;SDS011;12731;52.182;8.716;2024-02-23T02:14:55;3.92;;;0.90;;
24567;SDS011;12731;52.182;8.716;2024-02-23T02:17:22;1.70;;;0.75;;
24567;SDS011;12731;52.182;8.716;2024-02-23T02:19:48;0.70;;;0.70;;
24567;SDS011;12731;52.182;8.716;2024-02-23T02:22:15;2.58;;;1.02;;
24567;SDS011;12731;52.182;8.716;2024-02-23T02:24:41;1.83;;;0.90;;
24567;SDS011;12731;52.182;8.716;2024-02-23T02:27:10;2.38;;;1.00;;
24567;SDS011;12731;52.182;8.716;2024-02-23T02:29:36;2.05;;;0.93;;
24567;SDS011;12731;52.182;8.716;2024-02-23T02:32:02;1.83;;;1.00;;
24567;SDS011;12731;52.182;8.716;2024-02-23T02:34:29;1.50;;;0.85;;
24567;SDS011;12731;52.182;8.716;2024-02-23T02:36:55;1.60;;;1.02;;
24567;SDS011;12731;52.182;8.716;2024-02-23T02:39:22;1.75;;;1.20;;
24567;SDS011;12731;52.182;8.716;2024-02-23T02:41:48;1.92;;;1.23;;
24567;SDS011;12731;52.182;8.716;2024-02-23T02:44:15;1.23;;;1.00;;
24567;SDS011;12731;52.182;8.716;2024-02-23T02:46:41;4.32;;;1.20;;
24567;SDS011;12731;52.182;8.716;2024-02-23T02:49:08;1.77;;;1.10;;
24567;SDS011;12731;52.182;8.716;2024-02-23T02:51:35;1.67;;;1.17;;
24567;SDS011;12731;52.182;8.716;2024-02-23T02:54:01;2.47;;;1.40;;
24567;SDS011;12731;52.182;8.716;2024-02-23T02:56:27;1.90;;;1.52;;
24567;SDS011;12731;52.182;8.716;2024-02-23T02:58:54;2.38;;;1.75;;
24567;SDS011;12731;52.182;8.716;2024-02-23T03:01:20;4.72;;;1.77;;
24567;SDS011;12731;52.182;8.716;2024-02-23T03:03:47;2.65;;;1.90;;
24567;SDS011;12731;52.182;8.716;2024-02-23T03:06:13;3.63;;;1.90;;
24567;SDS011;12731;52.182;8.716;2024-02-23T03:08:41;3.72;;;1.55;;
24567;SDS011;12731;52.182;8.716;2024-02-23T03:11:08;3.72;;;1.80;;
24567;SDS011;12731;52.182;8.716;2024-02-23T03:13:35;3.08;;;1.73;;
24567;SDS011;12731;52.182;8.716;2024-02-23T03:16:01;2.28;;;1.90;;
24567;SDS011;12731;52.182;8.716;2024-02-23T03:18:28;2.08;;;1.88;;
24567;SDS011;12731;52.182;8.716;2024-02-23T03:20:54;7.30;;;2.47;;
24567;SDS011;12731;52.182;8.716;2024-02-23T03:23:21;5.55;;;2.05;;
24567;SDS011;12731;52.182;8.716;2024-02-23T03:25:47;2.83;;;1.90;;
24567;SDS011;12731;52.182;8.716;2024-02-23T03:28:14;3.20;;;1.90;;
24567;SDS011;12731;52.182;8.716;2024-02-23T03:30:40;3.97;;;1.95;;
24567;SDS011;12731;52.182;8.716;2024-02-23T03:33:07;3.63;;;1.85;;
24567;SDS011;12731;52.182;8.716;2024-02-23T03:35:33;5.30;;;1.90;;
24567;SDS011;12731;52.182;8.716;2024-02-23T03:38:00;4.93;;;1.42;;
24567;SDS011;12731;52.182;8.716;2024-02-23T03:40:27;2.78;;;1.60;;
24567;SDS011;12731;52.182;8.716;2024-02-23T03:42:53;2.03;;;1.30;;
24567;SDS011;12731;52.182;8.716;2024-02-23T03:45:20;2.78;;;1.48;;
24567;SDS011;12731;52.182;8.716;2024-02-23T03:47:46;5.07;;;1.67;;
24567;SDS011;12731;52.182;8.716;2024-02-23T03:50:13;3.05;;;1.60;;
24567;SDS011;12731;52.182;8.716;2024-02-23T03:52:39;2.65;;;1.50;;
24567;SDS011;12731;52.182;8.716;2024-02-23T03:55:06;4.00;;;1.30;;
24567;SDS011;12731;52.182;8.716;2024-02-23T03:57:32;2.22;;;1.40;;
24567;SDS011;12731;52.182;8.716;2024-02-23T03:59:59;4.03;;;1.52;;
24567;SDS011;12731;52.182;8.716;2024-02-23T04:02:25;3.45;;;1.67;;
24567;SDS011;12731;52.182;8.716;2024-02-23T04:04:52;4.93;;;1.70;;
24567;SDS011;12731;52.182;8.716;2024-02-23T04:07:20;3.05;;;1.35;;
24567;SDS011;12731;52.182;8.716;2024-02-23T04:09:47;3.33;;;1.70;;
24567;SDS011;12731;52.182;8.716;2024-02-23T04:12:18;4.05;;;1.40;;
24567;SDS011;12731;52.182;8.716;2024-02-23T04:14:45;2.38;;;1.65;;
24567;SDS011;12731;52.182;8.716;2024-02-23T04:17:12;2.92;;;1.40;;
24567;SDS011;12731;52.182;8.716;2024-02-23T04:19:40;7.82;;;1.45;;
24567;SDS011;12731;52.182;8.716;2024-02-23T04:22:07;4.47;;;1.70;;
24567;SDS011;12731;52.182;8.716;2024-02-23T04:24:38;3.75;;;1.55;;
24567;SDS011;12731;52.182;8.716;2024-02-23T04:27:07;2.55;;;1.40;;
24567;SDS011;12731;52.182;8.716;2024-02-23T04:29:34;5.03;;;1.40;;
24567;SDS011;12731;52.182;8.716;2024-02-23T04:32:01;4.63;;;1.30;;
24567;SDS011;12731;52.182;8.716;2024-02-23T04:34:27;3.20;;;1.33;;
24567;SDS011;12731;52.182;8.716;2024-02-23T04:36:54;3.50;;;1.30;;
24567;SDS011;12731;52.182;8.716;2024-02-23T04:39:21;3.65;;;1.20;;
24567;SDS011;12731;52.182;8.716;2024-02-23T04:41:47;4.80;;;1.40;;
24567;SDS011;12731;52.182;8.716;2024-02-23T04:44:14;5.78;;;1.13;;
24567;SDS011;12731;52.182;8.716;2024-02-23T04:46:40;3.25;;;1.13;;
24567;SDS011;12731;52.182;8.716;2024-02-23T04:49:07;3.40;;;1.08;;
24567;SDS011;12731;52.182;8.716;2024-02-23T04:51:33;3.95;;;1.30;;
24567;SDS011;12731;52.182;8.716;2024-02-23T04:53:59;4.55;;;1.30;;
24567;SDS011;12731;52.182;8.716;2024-02-23T04:56:26;8.18;;;1.50;;
24567;SDS011;12731;52.182;8.716;2024-02-23T04:58:52;4.05;;;1.50;;
24567;SDS011;12731;52.182;8.716;2024-02-23T05:01:19;3.45;;;1.17;;
24567;SDS011;12731;52.182;8.716;2024-02-23T05:03:45;5.38;;;1.30;;
24567;SDS011;12731;52.182;8.716;2024-02-23T05:06:12;4.80;;;1.27;;
24567;SDS011;12731;52.182;8.716;2024-02-23T05:08:39;5.38;;;1.08;;
24567;SDS011;12731;52.182;8.716;2024-02-23T05:11:06;3.15;;;1.20;;
24567;SDS011;12731;52.182;8.716;2024-02-23T05:13:32;5.47;;;1.33;;
24567;SDS011;12731;52.182;8.716;2024-02-23T05:15:59;4.30;;;1.30;;
24567;SDS011;12731;52.182;8.716;2024-02-23T05:18:25;7.55;;;1.35;;
24567;SDS011;12731;52.182;8.716;2024-02-23T05:20:52;3.72;;;1.33;;
24567;SDS011;12731;52.182;8.716;2024-02-23T05:23:20;5.53;;;1.48;;
24567;SDS011;12731;52.182;8.716;2024-02-23T05:25:46;3.88;;;1.45;;
24567;SDS011;12731;52.182;8.716;2024-02-23T05:28:13;3.28;;;1.15;;
24567;SDS011;12731;52.182;8.716;2024-02-23T05:30:39;6.25;;;1.15;;
24567;SDS011;12731;52.182;8.716;2024-02-23T05:33:07;5.05;;;1.30;;
24567;SDS011;12731;52.182;8.716;2024-02-23T05:35:34;5.00;;;1.17;;
24567;SDS011;12731;52.182;8.716;2024-02-23T05:38:00;3.10;;;0.98;;
24567;SDS011;12731;52.182;8.716;2024-02-23T05:40:27;4.30;;;1.25;;
24567;SDS011;12731;52.182;8.716;2024-02-23T05:42:53;4.38;;;1.33;;
24567;SDS011;12731;52.182;8.716;2024-02-23T05:45:20;6.65;;;1.08;;
24567;SDS011;12731;52.182;8.716;2024-02-23T05:47:48;6.45;;;1.48;;
24567;SDS011;12731;52.182;8.716;2024-02-23T05:50:15;5.00;;;1.40;;
24567;SDS011;12731;52.182;8.716;2024-02-23T05:52:42;5.20;;;1.80;;
24567;SDS011;12731;52.182;8.716;2024-02-23T05:55:08;3.67;;;1.30;;
24567;SDS011;12731;52.182;8.716;2024-02-23T05:57:35;3.80;;;1.30;;
24567;SDS011;12731;52.182;8.716;2024-02-23T06:00:01;3.60;;;1.40;;
24567;SDS011;12731;52.182;8.716;2024-02-23T06:02:28;5.13;;;1.60;;
24567;SDS011;12731;52.182;8.716;2024-02-23T06:04:54;3.83;;;1.20;;
24567;SDS011;12731;52.182;8.716;2024-02-23T06:07:21;4.30;;;1.38;;
24567;SDS011;12731;52.182;8.716;2024-02-23T06:09:57;3.38;;;1.30;;
24567;SDS011;12731;52.182;8.716;2024-02-23T06:12:24;5.32;;;1.58;;
24567;SDS011;12731;52.182;8.716;2024-02-23T06:14:51;6.28;;;1.52;;
24567;SDS011;12731;52.182;8.716;2024-02-23T06:17:17;5.25;;;1.60;;
24567;SDS011;12731;52.182;8.716;2024-02-23T06:19:44;4.85;;;1.60;;
24567;SDS011;12731;52.182;8.716;2024-02-23T06:22:10;5.40;;;1.35;;
24567;SDS011;12731;52.182;8.716;2024-02-23T06:24:38;5.18;;;1.90;;
24567;SDS011;12731;52.182;8.716;2024-02-23T06:27:04;7.32;;;1.52;;
24567;SDS011;12731;52.182;8.716;2024-02-23T06:29:31;5.18;;;1.55;;
24567;SDS011;12731;52.182;8.716;2024-02-23T06:31:57;5.18;;;1.35;;
24567;SDS011;12731;52.182;8.716;2024-02-23T06:34:24;4.57;;;1.50;;
24567;SDS011;12731;52.182;8.716;2024-02-23T06:36:51;6.13;;;1.83;;
24567;SDS011;12731;52.182;8.716;2024-02-23T06:39:17;5.32;;;1.55;;
24567;SDS011;12731;52.182;8.716;2024-02-23T06:41:44;5.32;;;1.38;;
24567;SDS011;12731;52.182;8.716;2024-02-23T06:44:11;3.08;;;1.15;;
24567;SDS011;12731;52.182;8.716;2024-02-23T06:46:37;6.55;;;1.60;;
24567;SDS011;12731;52.182;8.716;2024-02-23T06:49:04;7.13;;;1.60;;
24567;SDS011;12731;52.182;8.716;2024-02-23T06:51:31;6.55;;;1.50;;
24567;SDS011;12731;52.182;8.716;2024-02-23T06:53:58;7.28;;;2.08;;
24567;SDS011;12731;52.182;8.716;2024-02-23T06:56:24;5.28;;;1.30;;
24567;SDS011;12731;52.182;8.716;2024-02-23T06:58:51;3.90;;;1.48;;
24567;SDS011;12731;52.182;8.716;2024-02-23T07:01:19;6.90;;;1.90;;
24567;SDS011;12731;52.182;8.716;2024-02-23T07:03:46;5.38;;;1.30;;
24567;SDS011;12731;52.182;8.716;2024-02-23T07:06:15;3.95;;;1.40;;
24567;SDS011;12731;52.182;8.716;2024-02-23T07:08:44;7.68;;;1.60;;
24567;SDS011;12731;52.182;8.716;2024-02-23T07:11:11;4.45;;;1.20;;
24567;SDS011;12731;52.182;8.716;2024-02-23T07:13:38;6.85;;;1.52;;
24567;SDS011;12731;52.182;8.716;2024-02-23T07:16:05;8.13;;;1.77;;
24567;SDS011;12731;52.182;8.716;2024-02-23T07:18:32;5.63;;;1.40;;
24567;SDS011;12731;52.182;8.716;2024-02-23T07:20:59;7.68;;;1.52;;
24567;SDS011;12731;52.182;8.716;2024-02-23T07:23:25;5.40;;;1.50;;
24567;SDS011;12731;52.182;8.716;2024-02-23T07:25:52;4.68;;;1.42;;
24567;SDS011;12731;52.182;8.716;2024-02-23T07:28:19;5.28;;;1.42;;
24567;SDS011;12731;52.182;8.716;2024-02-23T07:30:46;4.97;;;1.50;;
24567;SDS011;12731;52.182;8.716;2024-02-23T07:33:12;5.55;;;1.38;;
24567;SDS011;12731;52.182;8.716;2024-02-23T07:35:39;3.17;;;1.23;;
24567;SDS011;12731;52.182;8.716;2024-02-23T07:38:05;5.13;;;1.23;;
24567;SDS011;12731;52.182;8.716;2024-02-23T07:40:32;2.97;;;1.33;;
24567;SDS011;12731;52.182;8.716;2024-02-23T07:42:58;5.93;;;1.20;;
24567;SDS011;12731;52.182;8.716;2024-02-23T07:45:25;5.18;;;1.27;;
24567;SDS011;12731;52.182;8.716;2024-02-23T07:47:52;6.07;;;1.85;;
24567;SDS011;12731;52.182;8.716;2024-02-23T07:50:19;5.07;;;1.83;;
24567;SDS011;12731;52.182;8.716;2024-02-23T07:52:45;3.95;;;1.30;;
24567;SDS011;12731;52.182;8.716;2024-02-23T07:55:12;5.75;;;1.27;;
24567;SDS011;12731;52.182;8.716;2024-02-23T07:57:42;7.50;;;1.33;;
24567;SDS011;12731;52.182;8.716;2024-02-23T08:00:08;4.55;;;1.13;;
24567;SDS011;12731;52.182;8.716;2024-02-23T08:02:36;4.15;;;1.10;;
24567;SDS011;12731;52.182;8.716;2024-02-23T08:05:02;4.05;;;1.20;;
24567;SDS011;12731;52.182;8.716;2024-02-23T08:07:30;5.57;;;1.30;;
24567;SDS011;12731;52.182;8.716;2024-02-23T08:09:57;4.13;;;1.45;;
24567;SDS011;12731;52.182;8.716;2024-02-23T08:12:23;3.33;;;1.38;;
24567;SDS011;12731;52.182;8.716;2024-02-23T08:14:50;4.38;;;1.02;;
24567;SDS011;12731;52.182;8.716;2024-02-23T08:17:19;8.00;;;1.17;;
24567;SDS011;12731;52.182;8.716;2024-02-23T08:19:46;4.10;;;1.30;;
24567;SDS011;12731;52.182;8.716;2024-02-23T08:22:13;4.68;;;1.08;;
24567;SDS011;12731;52.182;8.716;2024-02-23T08:24:39;5.32;;;1.27;;
24567;SDS011;12731;52.182;8.716;2024-02-23T08:27:06;4.60;;;1.33;;
24567;SDS011;12731;52.182;8.716;2024-02-23T08:29:33;5.40;;;1.23;;
24567;SDS011;12731;52.182;8.716;2024-02-23T08:31:59;3.58;;;1.25;;
24567;SDS011;12731;52.182;8.716;2024-02-23T08:34:26;2.47;;;0.90;;
24567;SDS011;12731;52.182;8.716;2024-02-23T08:36:52;5.55;;;1.20;;
24567;SDS011;12731;52.182;8.716;2024-02-23T08:39:18;5.15;;;1.20;;
24567;SDS011;12731;52.182;8.716;2024-02-23T08:41:48;9.07;;;1.48;;
24567;SDS011;12731;52.182;8.716;2024-02-23T08:44:14;5.28;;;1.00;;
24567;SDS011;12731;52.182;8.716;2024-02-23T08:46:40;5.38;;;1.00;;
24567;SDS011;12731;52.182;8.716;2024-02-23T08:49:07;3.85;;;0.93;;
24567;SDS011;12731;52.182;8.716;2024-02-23T08:51:34;5.65;;;1.52;;
24567;SDS011;12731;52.182;8.716;2024-02-23T08:54:00;4.13;;;0.95;;
24567;SDS011;12731;52.182;8.716;2024-02-23T08:56:31;2.80;;;0.90;;
24567;SDS011;12731;52.182;8.716;2024-02-23T08:58:58;4.30;;;1.23;;
24567;SDS011;12731;52.182;8.716;2024-02-23T09:01:25;4.85;;;1.20;;
24567;SDS011;12731;52.182;8.716;2024-02-23T09:03:51;4.15;;;1.10;;
24567;SDS011;12731;52.182;8.716;2024-02-23T09:06:18;4.20;;;1.00;;
24567;SDS011;12731;52.182;8.716;2024-02-23T09:08:46;4.03;;;1.02;;
24567;SDS011;12731;52.182;8.716;2024-02-23T09:11:12;4.30;;;0.95;;
24567;SDS011;12731;52.182;8.716;2024-02-23T09:13:40;4.55;;;1.10;;
24567;SDS011;12731;52.182;8.716;2024-02-23T09:16:08;1.63;;;0.80;;
24567;SDS011;12731;52.182;8.716;2024-02-23T09:18:35;2.53;;;0.70;;
24567;SDS011;12731;52.182;8.716;2024-02-23T09:21:02;6.68;;;1.25;;
24567;SDS011;12731;52.182;8.716;2024-02-23T09:23:28;5.65;;;1.10;;
24567;SDS011;12731;52.182;8.716;2024-02-23T09:25:55;4.07;;;1.00;;
24567;SDS011;12731;52.182;8.716;2024-02-23T09:28:21;3.97;;;1.15;;
24567;SDS011;12731;52.182;8.716;2024-02-23T09:30:48;5.93;;;1.00;;
24567;SDS011;12731;52.182;8.716;2024-02-23T09:33:14;5.88;;;1.08;;
24567;SDS011;12731;52.182;8.716;2024-02-23T09:35:41;4.00;;;1.17;;
24567;SDS011;12731;52.182;8.716;2024-02-23T09:38:07;5.70;;;1.15;;
24567;SDS011;12731;52.182;8.716;2024-02-23T09:40:34;6.30;;;1.30;;
24567;SDS011;12731;52.182;8.716;2024-02-23T09:43:00;3.05;;;0.90;;
24567;SDS011;12731;52.182;8.716;2024-02-23T09:45:27;5.28;;;1.05;;
24567;SDS011;12731;52.182;8.716;2024-02-23T09:47:55;4.10;;;0.98;;
24567;SDS011;12731;52.182;8.716;2024-02-23T09:50:23;7.55;;;1.23;;
24567;SDS011;12731;52.182;8.716;2024-02-23T09:52:50;4.13;;;1.08;;
24567;SDS011;12731;52.182;8.716;2024-02-23T09:55:17;4.90;;;1.23;;
24567;SDS011;12731;52.182;8.716;2024-02-23T09:57:45;5.13;;;1.17;;
24567;SDS011;12731;52.182;8.716;2024-02-23T10:00:17;7.07;;;1.50;;
24567;SDS011;12731;52.182;8.716;2024-02-23T10:02:43;3.92;;;1.13;;
24567;SDS011;12731;52.182;8.716;2024-02-23T10:05:10;3.58;;;1.02;;
24567;SDS011;12731;52.182;8.716;2024-02-23T10:07:38;3.58;;;0.93;;
24567;SDS011;12731;52.182;8.716;2024-02-23T10:10:06;2.70;;;0.95;;
24567;SDS011;12731;52.182;8.716;2024-02-23T10:12:34;3.20;;;1.05;;
24567;SDS011;12731;52.182;8.716;2024-02-23T10:15:02;5.03;;;1.08;;
24567;SDS011;12731;52.182;8.716;2024-02-23T10:17:30;6.45;;;1.15;;
24567;SDS011;12731;52.182;8.716;2024-02-23T10:20:01;3.83;;;0.75;;
24567;SDS011;12731;52.182;8.716;2024-02-23T10:22:31;4.07;;;1.10;;
24567;SDS011;12731;52.182;8.716;2024-02-23T10:24:57;2.50;;;1.00;;
24567;SDS011;12731;52.182;8.716;2024-02-23T10:27:24;4.60;;;1.15;;
24567;SDS011;12731;52.182;8.716;2024-02-23T10:29:50;3.13;;;0.90;;
24567;SDS011;12731;52.182;8.716;2024-02-23T10:32:17;3.65;;;1.10;;
24567;SDS011;12731;52.182;8.716;2024-02-23T10:34:47;5.00;;;1.20;;
24567;SDS011;12731;52.182;8.716;2024-02-23T10:37:16;5.65;;;1.20;;
24567;SDS011;12731;52.182;8.716;2024-02-23T10:39:42;5.20;;;0.90;;
24567;SDS011;12731;52.182;8.716;2024-02-23T10:42:09;3.55;;;0.85;;
24567;SDS011;12731;52.182;8.716;2024-02-23T10:44:37;1.63;;;0.77;;
24567;SDS011;12731;52.182;8.716;2024-02-23T10:47:04;5.28;;;1.10;;
24567;SDS011;12731;52.182;8.716;2024-02-23T10:49:31;2.60;;;0.82;;
24567;SDS011;12731;52.182;8.716;2024-02-23T10:51:57;4.07;;;0.98;;
24567;SDS011;12731;52.182;8.716;2024-02-23T10:54:24;5.18;;;1.30;;
24567;SDS011;12731;52.182;8.716;2024-02-23T10:56:51;2.15;;;0.80;;
24567;SDS011;12731;52.182;8.716;2024-02-23T10:59:18;3.90;;;1.42;;
24567;SDS011;12731;52.182;8.716;2024-02-23T11:01:49;6.32;;;1.70;;
24567;SDS011;12731;52.182;8.716;2024-02-23T11:04:16;5.00;;;1.10;;
24567;SDS011;12731;52.182;8.716;2024-02-23T11:06:48;3.38;;;1.13;;
24567;SDS011;12731;52.182;8.716;2024-02-23T11:09:16;3.70;;;1.25;;
24567;SDS011;12731;52.182;8.716;2024-02-23T11:11:55;3.13;;;0.90;;
24567;SDS011;12731;52.182;8.716;2024-02-23T11:14:31;3.83;;;1.05;;
24567;SDS011;12731;52.182;8.716;2024-02-23T11:17:01;4.75;;;1.10;;
24567;SDS011;12731;52.182;8.716;2024-02-23T11:19:36;3.72;;;1.10;;
24567;SDS011;12731;52.182;8.716;2024-02-23T11:22:09;3.58;;;0.90;;
24567;SDS011;12731;52.182;8.716;2024-02-23T11:24:48;4.88;;;1.10;;
24567;SDS011;12731;52.182;8.716;2024-02-23T11:27:19;3.72;;;0.98;;
24567;SDS011;12731;52.182;8.716;2024-02-23T11:29:46;3.30;;;0.90;;
24567;SDS011;12731;52.182;8.716;2024-02-23T11:32:15;4.28;;;0.90;;
24567;SDS011;12731;52.182;8.716;2024-02-23T11:34:55;2.65;;;1.13;;
24567;SDS011;12731;52.182;8.716;2024-02-23T11:37:28;5.13;;;1.20;;
24567;SDS011;12731;52.182;8.716;2024-02-23T11:39:54;3.65;;;1.20;;
24567;SDS011;12731;52.182;8.716;2024-02-23T11:42:23;4.15;;;1.02;;
24567;SDS011;12731;52.182;8.716;2024-02-23T11:44:50;2.92;;;1.10;;
24567;SDS011;12731;52.182;8.716;2024-02-23T11:47:16;3.47;;;1.25;;
24567;SDS011;12731;52.182;8.716;2024-02-23T11:49:43;5.03;;;1.55;;
24567;SDS011;12731;52.182;8.716;2024-02-23T11:52:09;4.25;;;1.40;;
24567;SDS011;12731;52.182;8.716;2024-02-23T11:54:36;4.40;;;1.42;;
24567;SDS011;12731;52.182;8.716;2024-02-23T11:57:03;3.65;;;1.52;;
24567;SDS011;12731;52.182;8.716;2024-02-23T11:59:30;5.93;;;2.60;;
24567;SDS011;12731;52.182;8.716;2024-02-23T12:01:57;6.95;;;2.53;;
24567;SDS011;12731;52.182;8.716;2024-02-23T12:04:23;6.60;;;2.05;;
24567;SDS011;12731;52.182;8.716;2024-02-23T12:06:49;5.20;;;2.33;;
24567;SDS011;12731;52.182;8.716;2024-02-23T12:09:16;5.88;;;2.30;;
24567;SDS011;12731;52.182;8.716;2024-02-23T12:11:42;6.80;;;2.40;;
24567;SDS011;12731;52.182;8.716;2024-02-23T12:14:09;8.57;;;2.38;;
24567;SDS011;12731;52.182;8.716;2024-02-23T12:16:36;5.60;;;1.88;;
24567;SDS011;12731;52.182;8.716;2024-02-23T12:19:02;3.55;;;1.70;;
24567;SDS011;12731;52.182;8.716;2024-02-23T12:21:29;4.38;;;1.42;;
24567;SDS011;12731;52.182;8.716;2024-02-23T12:23:56;3.97;;;1.63;;
24567;SDS011;12731;52.182;8.716;2024-02-23T12:26:22;5.18;;;1.30;;
24567;SDS011;12731;52.182;8.716;2024-02-23T12:28:49;2.75;;;1.20;;
24567;SDS011;12731;52.182;8.716;2024-02-23T12:31:15;3.92;;;1.45;;
24567;SDS011;12731;52.182;8.716;2024-02-23T12:33:42;6.20;;;1.30;;
24567;SDS011;12731;52.182;8.716;2024-02-23T12:36:14;3.92;;;1.30;;
24567;SDS011;12731;52.182;8.716;2024-02-23T12:38:41;3.25;;;1.00;;
24567;SDS011;12731;52.182;8.716;2024-02-23T12:41:07;3.67;;;1.20;;
24567;SDS011;12731;52.182;8.716;2024-02-23T12:43:34;3.97;;;0.93;;
24567;SDS011;12731;52.182;8.716;2024-02-23T12:46:03;3.97;;;1.00;;
24567;SDS011;12731;52.182;8.716;2024-02-23T12:48:30;2.67;;;0.77;;
24567;SDS011;12731;52.182;8.716;2024-02-23T12:50:56;2.70;;;0.75;;
24567;SDS011;12731;52.182;8.716;2024-02-23T12:53:30;2.08;;;0.70;;
24567;SDS011;12731;52.182;8.716;2024-02-23T12:56:07;3.60;;;0.90;;
24567;SDS011;12731;52.182;8.716;2024-02-23T12:58:43;4.55;;;0.90;;
24567;SDS011;12731;52.182;8.716;2024-02-23T13:01:10;4.05;;;1.13;;
24567;SDS011;12731;52.182;8.716;2024-02-23T13:03:37;1.60;;;0.77;;
24567;SDS011;12731;52.182;8.716;2024-02-23T13:06:04;4.28;;;1.20;;
24567;SDS011;12731;52.182;8.716;2024-02-23T13:08:31;4.07;;;1.08;;
24567;SDS011;12731;52.182;8.716;2024-02-23T13:10:58;2.55;;;0.88;;
24567;SDS011;12731;52.182;8.716;2024-02-23T13:13:25;3.28;;;1.02;;
24567;SDS011;12731;52.182;8.716;2024-02-23T13:15:51;4.38;;;1.10;;
24567;SDS011;12731;52.182;8.716;2024-02-23T13:18:19;2.80;;;0.95;;
24567;SDS011;12731;52.182;8.716;2024-02-23T13:20:45;3.35;;;0.90;;
24567;SDS011;12731;52.182;8.716;2024-02-23T13:23:12;3.22;;;1.13;;
24567;SDS011;12731;52.182;8.716;2024-02-23T13:25:39;4.65;;;1.00;;
24567;SDS011;12731;52.182;8.716;2024-02-23T13:28:06;5.80;;;1.00;;
24567;SDS011;12731;52.182;8.716;2024-02-23T13:30:34;2.67;;;0.82;;
24567;SDS011;12731;52.182;8.716;2024-02-23T13:33:01;3.55;;;1.02;;
24567;SDS011;12731;52.182;8.716;2024-02-23T13:35:29;2.60;;;1.00;;
24567;SDS011;12731;52.182;8.716;2024-02-23T13:37:55;3.08;;;1.00;;
24567;SDS011;12731;52.182;8.716;2024-02-23T13:40:23;3.85;;;1.27;;
24567;SDS011;12731;52.182;8.716;2024-02-23T13:42:50;3.08;;;0.90;;
24567;SDS011;12731;52.182;8.716;2024-02-23T13:45:18;3.20;;;0.88;;
24567;SDS011;12731;52.182;8.716;2024-02-23T13:47:55;1.92;;;0.73;;
24567;SDS011;12731;52.182;8.716;2024-02-23T13:50:26;2.75;;;0.70;;
24567;SDS011;12731;52.182;8.716;2024-02-23T13:52:52;3.65;;;0.80;;
24567;SDS011;12731;52.182;8.716;2024-02-23T13:55:19;3.95;;;0.77;;
24567;SDS011;12731;52.182;8.716;2024-02-23T13:57:49;2.78;;;0.77;;
24567;SDS011;12731;52.182;8.716;2024-02-23T14:00:16;2.67;;;0.70;;
24567;SDS011;12731;52.182;8.716;2024-02-23T14:02:43;4.93;;;0.88;;
24567;SDS011;12731;52.182;8.716;2024-02-23T14:05:11;2.10;;;0.70;;
24567;SDS011;12731;52.182;8.716;2024-02-23T14:07:38;2.53;;;0.80;;
24567;SDS011;12731;52.182;8.716;2024-02-23T14:10:05;2.97;;;0.93;;
24567;SDS011;12731;52.182;8.716;2024-02-23T14:12:32;3.50;;;1.45;;
24567;SDS011;12731;52.182;8.716;2024-02-23T14:14:58;1.77;;;1.02;;
24567;SDS011;12731;52.182;8.716;2024-02-23T14:17:25;3.08;;;1.50;;
24567;SDS011;12731;52.182;8.716;2024-02-23T14:19:52;5.03;;;2.13;;
24567;SDS011;12731;52.182;8.716;2024-02-23T14:22:18;3.20;;;1.42;;
24567;SDS011;12731;52.182;8.716;2024-02-23T14:24:45;4.70;;;1.40;;
24567;SDS011;12731;52.182;8.716;2024-02-23T14:27:11;5.15;;;1.42;;
24567;SDS011;12731;52.182;8.716;2024-02-23T14:29:37;2.80;;;0.90;;
24567;SDS011;12731;52.182;8.716;2024-02-23T14:32:04;5.30;;;1.40;;
24567;SDS011;12731;52.182;8.716;2024-02-23T14:34:31;3.60;;;1.40;;
24567;SDS011;12731;52.182;8.716;2024-02-23T14:36:59;2.15;;;1.02;;
24567;SDS011;12731;52.182;8.716;2024-02-23T14:39:26;2.85;;;0.85;;
24567;SDS011;12731;52.182;8.716;2024-02-23T14:41:52;3.05;;;0.82;;
24567;SDS011;12731;52.182;8.716;2024-02-23T14:44:19;2.60;;;1.10;;
24567;SDS011;12731;52.182;8.716;2024-02-23T14:46:45;4.07;;;1.00;;
24567;SDS011;12731;52.182;8.716;2024-02-23T14:49:11;4.25;;;1.35;;